Chippewa County International Airport
KCIU : now visible

Airfield :











YOU CAN JOIN US ON...

 
LOGIN :

Register | Disclaimer

   EN    FR    IT 

 









Legend :    VFR   Marginal VFR   IFR   Intensive IFR   Very Intensive IFR
Visi :
Ceiling :
>= 8 km
>= 3000ft
5 to 8 km
1000 to 3000 ft
1500m to 5 km
500 to 1000 ft
800 to 1500m
200 to 500 ft
< 800m
< 200 ft
Symbols :   Thunderstorms  Fog  Heavy snow  Heavy precipitations  Wind > 20 kt






- Airport Elevation : 800 ft
- IATA code : CIU


KCIU - Chippewa County International

CURRENT METAR :
  • 281603Z AUTO 00000KT 1 3/4SM -SN OVC015 M11/M14 A3051 RMK AO2 VIS 1/2V5 P0000 FZRANO

EXPIRED METARs :
  • 281545Z AUTO 00000KT 6SM -SN OVC013 M12/M16 A3050 RMK AO2 P0000 FZRANO
  • 281456Z AUTO 07004KT 6SM -SN BR SCT013 BKN019 OVC031 M14/M16 A3049 RMK AO2 SLP343 P0000 60000 T11391161 53001 FZRANO
  • 281443Z AUTO 06005KT 7SM -SN BKN026 OVC034 M14/M17 A3049 RMK AO2 P0000 FZRANO
  • 281435Z AUTO 06006KT 3SM -SN BR OVC032 M14/M16 A3050 RMK AO2 P0000 FZRANO
  • 281429Z AUTO 00000KT 1 1/4SM -SN BR OVC030 M14/M16 A3049 RMK AO2 P0000 FZRANO
  • 281420Z AUTO 00000KT 1SM -SN BR BKN028 OVC035 M14/M17 A3049 RMK AO2 P0000 FZRANO
  • 281356Z AUTO 00000KT 5SM -SN OVC027 M14/M17 A3049 RMK AO2 SLP343 P0000 T11441172 FZRANO

TAF N/A
KZMP FIR / North America



MET'MAP, your aeronautical weather chart ! - Copyright ORBIFLY December 2007 - Disclaimer

ORBIFLY MET'MAP TEAM :

Programming & Development : Alexandra Zaïnal
Concept & original design : Baudouin d'Aumeries
Assistance for programming : Marc-Olivier Méhu
Technical & hardware support : Manuel Goepfert

Contact : metmap@orbifly.com




SOURCES & CREDITS :

   NOAA       Earth
Advisory